sensor_id;sensor_type;location;lat;lon;timestamp;pressure;altitude;pressure_sealevel;temperature;humidity
72124;BME280;63818;37.134;-8.548;2023-05-03T00:04:38;100961.0;;;23.8;51.3
72124;BME280;63818;37.134;-8.548;2023-05-03T00:09:24;100943.4;;;23.9;50.9
72124;BME280;63818;37.134;-8.548;2023-05-03T00:14:10;100983.3;;;23.8;51.5
72124;BME280;63818;37.134;-8.548;2023-05-03T00:18:56;100975.1;;;23.8;52.6
72124;BME280;63818;37.134;-8.548;2023-05-03T00:23:42;100988.5;;;23.8;53.1
72124;BME280;63818;37.134;-8.548;2023-05-03T00:28:29;100990.4;;;23.8;53.7
72124;BME280;63818;37.134;-8.548;2023-05-03T00:33:15;100988.1;;;23.9;53.8
72124;BME280;63818;37.134;-8.548;2023-05-03T00:38:02;100967.3;;;23.9;53.9
72124;BME280;63818;37.134;-8.548;2023-05-03T00:42:47;100939.0;;;24.0;53.7
72124;BME280;63818;37.134;-8.548;2023-05-03T00:47:37;100867.3;;;24.0;53.8
72124;BME280;63818;37.134;-8.548;2023-05-03T00:52:23;100896.3;;;24.0;53.8
72124;BME280;63818;37.134;-8.548;2023-05-03T00:57:10;100954.7;;;23.9;53.7
72124;BME280;63818;37.134;-8.548;2023-05-03T01:01:56;100932.8;;;23.9;53.7
72124;BME280;63818;37.134;-8.548;2023-05-03T01:06:48;100928.9;;;24.0;53.7
72124;BME280;63818;37.134;-8.548;2023-05-03T01:11:44;100914.7;;;24.0;53.6
72124;BME280;63818;37.134;-8.548;2023-05-03T01:16:35;100915.5;;;24.1;53.4
72124;BME280;63818;37.134;-8.548;2023-05-03T01:21:24;100899.8;;;24.1;53.2
72124;BME280;63818;37.134;-8.548;2023-05-03T01:26:18;100882.2;;;24.1;53.2
72124;BME280;63818;37.134;-8.548;2023-05-03T01:31:04;100861.4;;;24.2;52.9
72124;BME280;63818;37.134;-8.548;2023-05-03T01:35:53;100842.9;;;24.1;52.6
72124;BME280;63818;37.134;-8.548;2023-05-03T01:40:46;100853.1;;;24.1;52.5
72124;BME280;63818;37.134;-8.548;2023-05-03T01:45:33;100836.6;;;24.1;52.7
72124;BME280;63818;37.134;-8.548;2023-05-03T01:50:19;100830.8;;;24.1;52.4
72124;BME280;63818;37.134;-8.548;2023-05-03T01:55:08;100789.6;;;24.1;52.3
72124;BME280;63818;37.134;-8.548;2023-05-03T01:59:55;100808.8;;;24.1;52.5
72124;BME280;63818;37.134;-8.548;2023-05-03T02:04:40;100791.6;;;24.1;52.8
72124;BME280;63818;37.134;-8.548;2023-05-03T02:09:27;100757.4;;;24.1;52.7
72124;BME280;63818;37.134;-8.548;2023-05-03T02:14:15;100754.3;;;24.1;52.1
72124;BME280;63818;37.134;-8.548;2023-05-03T02:19:01;100753.9;;;24.0;51.4
72124;BME280;63818;37.134;-8.548;2023-05-03T02:23:47;100750.9;;;23.9;50.0
72124;BME280;63818;37.134;-8.548;2023-05-03T02:28:33;100750.9;;;23.5;51.1
72124;BME280;63818;37.134;-8.548;2023-05-03T02:33:19;100729.0;;;23.6;50.6
72124;BME280;63818;37.134;-8.548;2023-05-03T02:38:05;100721.9;;;23.8;50.1
72124;BME280;63818;37.134;-8.548;2023-05-03T02:42:52;100705.4;;;23.8;50.0
72124;BME280;63818;37.134;-8.548;2023-05-03T02:47:38;100700.7;;;23.8;49.7
72124;BME280;63818;37.134;-8.548;2023-05-03T02:52:24;100707.8;;;23.8;49.9
72124;BME280;63818;37.134;-8.548;2023-05-03T02:57:10;100714.8;;;23.8;49.7
72124;BME280;63818;37.134;-8.548;2023-05-03T03:01:57;100740.3;;;23.8;49.6
72124;BME280;63818;37.134;-8.548;2023-05-03T03:06:43;100755.2;;;23.8;49.8
72124;BME280;63818;37.134;-8.548;2023-05-03T03:11:29;100745.4;;;23.8;50.2
72124;BME280;63818;37.134;-8.548;2023-05-03T03:16:17;100739.5;;;23.8;50.8
72124;BME280;63818;37.134;-8.548;2023-05-03T03:21:04;100752.0;;;23.8;51.0
72124;BME280;63818;37.134;-8.548;2023-05-03T03:25:50;100799.1;;;23.8;51.3
72124;BME280;63818;37.134;-8.548;2023-05-03T03:30:36;100812.4;;;23.7;51.6
72124;BME280;63818;37.134;-8.548;2023-05-03T03:35:25;100801.1;;;23.5;52.3
72124;BME280;63818;37.134;-8.548;2023-05-03T03:40:12;100778.8;;;23.5;51.3
72124;BME280;63818;37.134;-8.548;2023-05-03T03:44:58;100808.1;;;23.6;49.7
72124;BME280;63818;37.134;-8.548;2023-05-03T03:49:44;100803.0;;;23.4;48.4
72124;BME280;63818;37.134;-8.548;2023-05-03T03:54:30;100765.4;;;23.4;48.3
72124;BME280;63818;37.134;-8.548;2023-05-03T03:59:16;100775.6;;;23.5;48.3
72124;BME280;63818;37.134;-8.548;2023-05-03T04:04:03;100800.3;;;23.5;47.8
72124;BME280;63818;37.134;-8.548;2023-05-03T04:08:49;100768.2;;;23.5;47.8
72124;BME280;63818;37.134;-8.548;2023-05-03T04:13:35;100775.2;;;23.5;48.1
72124;BME280;63818;37.134;-8.548;2023-05-03T04:18:21;100805.8;;;23.5;47.9
72124;BME280;63818;37.134;-8.548;2023-05-03T04:23:07;100819.5;;;23.5;47.7
72124;BME280;63818;37.134;-8.548;2023-05-03T04:27:53;100829.3;;;23.4;47.6
72124;BME280;63818;37.134;-8.548;2023-05-03T04:32:40;100814.8;;;23.4;47.9
72124;BME280;63818;37.134;-8.548;2023-05-03T04:37:26;100810.9;;;23.4;48.2
72124;BME280;63818;37.134;-8.548;2023-05-03T04:42:12;100812.9;;;23.5;47.9
72124;BME280;63818;37.134;-8.548;2023-05-03T04:46:58;100809.7;;;23.5;48.0
72124;BME280;63818;37.134;-8.548;2023-05-03T04:51:44;100805.8;;;23.5;48.3
72124;BME280;63818;37.134;-8.548;2023-05-03T04:56:30;100806.5;;;23.4;48.5
72124;BME280;63818;37.134;-8.548;2023-05-03T05:01:17;100812.8;;;23.4;48.3
72124;BME280;63818;37.134;-8.548;2023-05-03T05:06:03;100826.2;;;23.4;48.7
72124;BME280;63818;37.134;-8.548;2023-05-03T05:10:48;100818.3;;;23.4;49.3
72124;BME280;63818;37.134;-8.548;2023-05-03T05:15:35;100812.8;;;23.3;50.3
72124;BME280;63818;37.134;-8.548;2023-05-03T05:20:23;100808.1;;;23.3;50.9
72124;BME280;63818;37.134;-8.548;2023-05-03T05:25:10;100805.4;;;23.3;51.4
72124;BME280;63818;37.134;-8.548;2023-05-03T05:29:56;100818.7;;;23.3;52.2
72124;BME280;63818;37.134;-8.548;2023-05-03T05:34:43;100819.5;;;23.2;52.2
72124;BME280;63818;37.134;-8.548;2023-05-03T05:39:29;100826.9;;;23.3;51.9
72124;BME280;63818;37.134;-8.548;2023-05-03T05:44:15;100811.2;;;23.2;51.8
72124;BME280;63818;37.134;-8.548;2023-05-03T05:49:01;100803.0;;;23.2;52.0
72124;BME280;63818;37.134;-8.548;2023-05-03T05:53:47;100810.5;;;23.2;52.3
72124;BME280;63818;37.134;-8.548;2023-05-03T05:58:33;100821.4;;;23.2;52.0
72124;BME280;63818;37.134;-8.548;2023-05-03T06:03:19;100859.0;;;23.3;52.3
72124;BME280;63818;37.134;-8.548;2023-05-03T06:08:04;100863.0;;;23.3;52.3
72124;BME280;63818;37.134;-8.548;2023-05-03T06:12:50;100875.5;;;23.3;52.7
72124;BME280;63818;37.134;-8.548;2023-05-03T06:17:36;100882.2;;;23.3;54.0
72124;BME280;63818;37.134;-8.548;2023-05-03T06:22:24;100891.1;;;23.3;55.3
72124;BME280;63818;37.134;-8.548;2023-05-03T06:27:10;100909.2;;;23.4;56.4
72124;BME280;63818;37.134;-8.548;2023-05-03T06:31:56;100935.0;;;23.3;58.0
72124;BME280;63818;37.134;-8.548;2023-05-03T06:36:43;100934.6;;;23.3;59.0
72124;BME280;63818;37.134;-8.548;2023-05-03T06:41:29;100936.6;;;23.3;59.7
72124;BME280;63818;37.134;-8.548;2023-05-03T06:46:15;100940.5;;;23.3;60.3
72124;BME280;63818;37.134;-8.548;2023-05-03T06:51:01;100946.0;;;23.3;61.0
72124;BME280;63818;37.134;-8.548;2023-05-03T06:55:49;100949.1;;;23.4;61.1
72124;BME280;63818;37.134;-8.548;2023-05-03T07:00:35;100960.1;;;23.4;61.9
72124;BME280;63818;37.134;-8.548;2023-05-03T07:05:21;100961.7;;;23.3;62.2
72124;BME280;63818;37.134;-8.548;2023-05-03T07:10:08;100971.9;;;23.4;62.3
72124;BME280;63818;37.134;-8.548;2023-05-03T07:14:54;100979.3;;;23.4;62.3
72124;BME280;63818;37.134;-8.548;2023-05-03T07:19:40;100971.0;;;23.2;61.3
72124;BME280;63818;37.134;-8.548;2023-05-03T07:24:26;100982.8;;;23.1;62.0
72124;BME280;63818;37.134;-8.548;2023-05-03T07:29:12;100989.1;;;23.3;62.0
72124;BME280;63818;37.134;-8.548;2023-05-03T07:33:58;101009.8;;;23.2;62.2
72124;BME280;63818;37.134;-8.548;2023-05-03T07:38:44;101012.6;;;23.3;62.7
72124;BME280;63818;37.134;-8.548;2023-05-03T07:43:30;101021.2;;;23.3;63.0
72124;BME280;63818;37.134;-8.548;2023-05-03T07:48:16;101020.8;;;23.3;63.9
72124;BME280;63818;37.134;-8.548;2023-05-03T07:53:02;101017.3;;;23.3;64.6
72124;BME280;63818;37.134;-8.548;2023-05-03T07:57:48;101012.2;;;23.2;64.9
72124;BME280;63818;37.134;-8.548;2023-05-03T08:02:37;101012.2;;;23.2;65.7
72124;BME280;63818;37.134;-8.548;2023-05-03T08:07:23;101009.0;;;23.1;66.2
72124;BME280;63818;37.134;-8.548;2023-05-03T08:12:09;101010.9;;;23.0;66.8
72124;BME280;63818;37.134;-8.548;2023-05-03T08:16:55;100996.8;;;23.0;67.1
72124;BME280;63818;37.134;-8.548;2023-05-03T08:21:41;100996.1;;;23.1;67.1
72124;BME280;63818;37.134;-8.548;2023-05-03T08:26:27;101010.6;;;23.2;66.8
72124;BME280;63818;37.134;-8.548;2023-05-03T08:31:13;101023.9;;;23.2;67.0
72124;BME280;63818;37.134;-8.548;2023-05-03T08:36:00;97454.9;;;-1.0;65.7
72124;BME280;63818;37.134;-8.548;2023-05-03T08:40:47;101037.3;;;23.3;66.4
72124;BME280;63818;37.134;-8.548;2023-05-03T08:45:32;101044.3;;;23.3;66.7
72124;BME280;63818;37.134;-8.548;2023-05-03T08:50:19;101043.5;;;23.3;66.9
72124;BME280;63818;37.134;-8.548;2023-05-03T08:55:06;101042.0;;;23.3;66.7
72124;BME280;63818;37.134;-8.548;2023-05-03T08:59:53;101039.6;;;23.3;66.5
72124;BME280;63818;37.134;-8.548;2023-05-03T09:04:38;101042.4;;;23.3;66.5
72124;BME280;63818;37.134;-8.548;2023-05-03T09:09:31;101033.0;;;23.3;66.6
72124;BME280;63818;37.134;-8.548;2023-05-03T09:14:17;101028.7;;;23.4;66.7
72124;BME280;63818;37.134;-8.548;2023-05-03T09:19:05;101031.8;;;23.3;66.9
72124;BME280;63818;37.134;-8.548;2023-05-03T09:23:51;101033.4;;;23.4;66.5
72124;BME280;63818;37.134;-8.548;2023-05-03T09:28:41;101042.0;;;23.4;66.7
72124;BME280;63818;37.134;-8.548;2023-05-03T09:33:29;101049.8;;;23.4;66.9
72124;BME280;63818;37.134;-8.548;2023-05-03T09:38:24;101058.1;;;23.4;67.5
72124;BME280;63818;37.134;-8.548;2023-05-03T09:43:11;101064.3;;;23.4;66.9
72124;BME280;63818;37.134;-8.548;2023-05-03T09:48:00;101062.0;;;23.4;66.7
72124;BME280;63818;37.134;-8.548;2023-05-03T09:52:47;101077.3;;;23.4;67.1
72124;BME280;63818;37.134;-8.548;2023-05-03T09:57:33;101077.3;;;23.4;68.7
72124;BME280;63818;37.134;-8.548;2023-05-03T10:02:19;101083.2;;;23.4;68.4
72124;BME280;63818;37.134;-8.548;2023-05-03T10:07:08;101102.4;;;23.4;69.0
72124;BME280;63818;37.134;-8.548;2023-05-03T10:11:58;101099.7;;;23.5;69.5
72124;BME280;63818;37.134;-8.548;2023-05-03T10:16:48;101098.5;;;23.5;69.3
72124;BME280;63818;37.134;-8.548;2023-05-03T10:21:50;101104.8;;;23.5;70.4
72124;BME280;63818;37.134;-8.548;2023-05-03T10:26:41;101104.4;;;23.5;70.3
72124;BME280;63818;37.134;-8.548;2023-05-03T10:31:46;101106.7;;;23.5;70.1
72124;BME280;63818;37.134;-8.548;2023-05-03T10:36:34;101103.2;;;23.4;70.2
72124;BME280;63818;37.134;-8.548;2023-05-03T10:41:27;101112.1;;;23.4;70.2
72124;BME280;63818;37.134;-8.548;2023-05-03T10:46:32;101118.0;;;23.4;70.6
72124;BME280;63818;37.134;-8.548;2023-05-03T10:51:33;101117.7;;;23.5;70.4
72124;BME280;63818;37.134;-8.548;2023-05-03T10:56:19;101116.5;;;23.4;70.2
72124;BME280;63818;37.134;-8.548;2023-05-03T11:01:08;101119.6;;;23.4;70.5
72124;BME280;63818;37.134;-8.548;2023-05-03T11:05:54;101121.2;;;23.5;70.5
72124;BME280;63818;37.134;-8.548;2023-05-03T11:10:42;101120.5;;;23.5;70.4
72124;BME280;63818;37.134;-8.548;2023-05-03T11:15:29;101123.6;;;23.5;70.2
72124;BME280;63818;37.134;-8.548;2023-05-03T11:20:15;101123.1;;;23.5;70.1
72124;BME280;63818;37.134;-8.548;2023-05-03T11:25:04;101127.0;;;23.4;70.0
72124;BME280;63818;37.134;-8.548;2023-05-03T11:29:51;101137.3;;;23.5;70.0
72124;BME280;63818;37.134;-8.548;2023-05-03T11:34:37;101132.1;;;23.4;69.8
72124;BME280;63818;37.134;-8.548;2023-05-03T11:39:24;101125.0;;;23.3;69.8
72124;BME280;63818;37.134;-8.548;2023-05-03T11:44:13;101129.7;;;23.3;69.7
72124;BME280;63818;37.134;-8.548;2023-05-03T11:49:00;101133.6;;;23.3;69.6
72124;BME280;63818;37.134;-8.548;2023-05-03T11:53:47;101138.3;;;23.3;70.1
72124;BME280;63818;37.134;-8.548;2023-05-03T11:58:33;101140.7;;;23.3;70.2
72124;BME280;63818;37.134;-8.548;2023-05-03T12:03:21;101142.7;;;23.3;70.1
72124;BME280;63818;37.134;-8.548;2023-05-03T12:08:08;101139.9;;;23.3;70.5
72124;BME280;63818;37.134;-8.548;2023-05-03T12:12:56;101142.2;;;23.2;70.9
72124;BME280;63818;37.134;-8.548;2023-05-03T12:17:42;101141.5;;;23.3;71.3
72124;BME280;63818;37.134;-8.548;2023-05-03T12:22:32;101153.6;;;23.3;71.6
72124;BME280;63818;37.134;-8.548;2023-05-03T12:27:21;101151.6;;;23.2;71.9
72124;BME280;63818;37.134;-8.548;2023-05-03T12:32:07;101160.2;;;23.2;72.2
72124;BME280;63818;37.134;-8.548;2023-05-03T12:36:53;101163.3;;;23.2;73.0
72124;BME280;63818;37.134;-8.548;2023-05-03T12:41:39;101166.1;;;23.2;72.8
72124;BME280;63818;37.134;-8.548;2023-05-03T12:46:28;101168.1;;;23.2;73.2
72124;BME280;63818;37.134;-8.548;2023-05-03T12:51:13;101171.6;;;23.2;73.3
72124;BME280;63818;37.134;-8.548;2023-05-03T12:55:59;101171.9;;;23.2;73.1
72124;BME280;63818;37.134;-8.548;2023-05-03T13:00:46;101186.8;;;23.1;72.6
72124;BME280;63818;37.134;-8.548;2023-05-03T13:05:32;101196.6;;;23.1;72.6
72124;BME280;63818;37.134;-8.548;2023-05-03T13:10:18;101211.5;;;23.1;72.8
72124;BME280;63818;37.134;-8.548;2023-05-03T13:15:05;101216.9;;;23.1;73.0
72124;BME280;63818;37.134;-8.548;2023-05-03T13:19:52;101233.4;;;23.1;73.1
72124;BME280;63818;37.134;-8.548;2023-05-03T13:24:39;101238.1;;;23.1;73.1
72124;BME280;63818;37.134;-8.548;2023-05-03T13:29:25;101240.4;;;23.0;73.1
72124;BME280;63818;37.134;-8.548;2023-05-03T13:34:11;101234.9;;;23.1;72.1
72124;BME280;63818;37.134;-8.548;2023-05-03T13:39:00;101229.1;;;23.1;69.8
72124;BME280;63818;37.134;-8.548;2023-05-03T13:43:46;101217.0;;;23.1;68.0
72124;BME280;63818;37.134;-8.548;2023-05-03T13:48:32;101208.0;;;23.2;64.3
72124;BME280;63818;37.134;-8.548;2023-05-03T13:53:18;101195.1;;;23.2;64.1
72124;BME280;63818;37.134;-8.548;2023-05-03T13:58:04;101197.8;;;23.2;60.7
72124;BME280;63818;37.134;-8.548;2023-05-03T14:02:50;101193.9;;;23.2;59.5
72124;BME280;63818;37.134;-8.548;2023-05-03T14:07:39;101190.8;;;23.3;62.2
72124;BME280;63818;37.134;-8.548;2023-05-03T14:12:27;101198.4;;;23.4;63.4
72124;BME280;63818;37.134;-8.548;2023-05-03T14:17:13;101204.6;;;23.5;63.7
72124;BME280;63818;37.134;-8.548;2023-05-03T14:21:59;101194.5;;;23.5;63.5
72124;BME280;63818;37.134;-8.548;2023-05-03T14:26:45;101198.1;;;23.5;63.6
72124;BME280;63818;37.134;-8.548;2023-05-03T14:31:32;101195.3;;;23.5;62.6
72124;BME280;63818;37.134;-8.548;2023-05-03T14:36:20;101179.2;;;23.5;61.3
72124;BME280;63818;37.134;-8.548;2023-05-03T14:41:08;101163.1;;;23.5;58.8
72124;BME280;63818;37.134;-8.548;2023-05-03T14:45:54;101162.8;;;23.5;59.0
72124;BME280;63818;37.134;-8.548;2023-05-03T14:50:40;101169.9;;;23.6;60.1
72124;BME280;63818;37.134;-8.548;2023-05-03T14:55:26;101184.4;;;23.7;60.0
72124;BME280;63818;37.134;-8.548;2023-05-03T15:00:13;101173.0;;;23.7;61.2
72124;BME280;63818;37.134;-8.548;2023-05-03T15:05:00;101171.9;;;23.7;63.3
72124;BME280;63818;37.134;-8.548;2023-05-03T15:09:45;101177.4;;;23.8;63.7
72124;BME280;63818;37.134;-8.548;2023-05-03T15:14:31;101179.0;;;23.7;64.1
72124;BME280;63818;37.134;-8.548;2023-05-03T15:19:18;101190.4;;;23.8;65.4
72124;BME280;63818;37.134;-8.548;2023-05-03T15:24:05;101188.8;;;23.8;66.4
72124;BME280;63818;37.134;-8.548;2023-05-03T15:28:53;101199.0;;;23.8;66.4
72124;BME280;63818;37.134;-8.548;2023-05-03T15:33:41;101192.3;;;23.9;66.3
72124;BME280;63818;37.134;-8.548;2023-05-03T15:38:27;101206.1;;;24.0;66.4
72124;BME280;63818;37.134;-8.548;2023-05-03T15:43:14;101194.7;;;24.0;66.7
72124;BME280;63818;37.134;-8.548;2023-05-03T15:48:00;101187.3;;;24.1;66.4
72124;BME280;63818;37.134;-8.548;2023-05-03T15:52:47;101185.5;;;24.5;65.6
72124;BME280;63818;37.134;-8.548;2023-05-03T15:57:33;101194.9;;;24.8;64.5
72124;BME280;63818;37.134;-8.548;2023-05-03T16:02:19;101197.7;;;25.0;63.8
72124;BME280;63818;37.134;-8.548;2023-05-03T16:07:05;101182.0;;;25.2;61.0
72124;BME280;63818;37.134;-8.548;2023-05-03T16:11:51;101173.7;;;25.4;58.8
72124;BME280;63818;37.134;-8.548;2023-05-03T16:16:37;101177.6;;;25.5;55.4
72124;BME280;63818;37.134;-8.548;2023-05-03T16:21:23;101162.6;;;25.5;46.1
72124;BME280;63818;37.134;-8.548;2023-05-03T16:26:12;101150.4;;;25.6;41.2
72124;BME280;63818;37.134;-8.548;2023-05-03T16:30:58;101153.9;;;25.9;42.1
72124;BME280;63818;37.134;-8.548;2023-05-03T16:35:44;101150.3;;;25.9;40.1
72124;BME280;63818;37.134;-8.548;2023-05-03T16:40:33;101140.8;;;26.0;39.1
72124;BME280;63818;37.134;-8.548;2023-05-03T16:45:19;101158.5;;;26.0;37.7
72124;BME280;63818;37.134;-8.548;2023-05-03T16:50:06;101155.7;;;26.1;39.6
72124;BME280;63818;37.134;-8.548;2023-05-03T16:54:52;101168.2;;;26.2;40.0
72124;BME280;63818;37.134;-8.548;2023-05-03T16:59:42;101198.2;;;26.1;37.1
72124;BME280;63818;37.134;-8.548;2023-05-03T17:04:28;101196.7;;;26.0;39.0
72124;BME280;63818;37.134;-8.548;2023-05-03T17:09:15;101214.4;;;26.1;43.4
72124;BME280;63818;37.134;-8.548;2023-05-03T17:14:02;101204.5;;;26.0;44.9
72124;BME280;63818;37.134;-8.548;2023-05-03T17:18:47;101223.5;;;26.0;47.9
72124;BME280;63818;37.134;-8.548;2023-05-03T17:23:35;101211.3;;;25.8;49.4
72124;BME280;63818;37.134;-8.548;2023-05-03T17:28:21;101216.5;;;25.7;49.7
72124;BME280;63818;37.134;-8.548;2023-05-03T17:33:07;101220.8;;;25.7;50.2
72124;BME280;63818;37.134;-8.548;2023-05-03T17:37:53;101246.4;;;25.5;50.9
72124;BME280;63818;37.134;-8.548;2023-05-03T17:42:39;101250.3;;;25.5;53.8
72124;BME280;63818;37.134;-8.548;2023-05-03T17:47:25;101264.5;;;25.4;55.7
72124;BME280;63818;37.134;-8.548;2023-05-03T17:52:12;101280.6;;;25.3;53.2
72124;BME280;63818;37.134;-8.548;2023-05-03T17:57:01;101267.2;;;25.3;52.6
72124;BME280;63818;37.134;-8.548;2023-05-03T18:01:47;101262.9;;;25.2;52.1
72124;BME280;63818;37.134;-8.548;2023-05-03T18:06:42;101278.6;;;25.1;52.4
72124;BME280;63818;37.134;-8.548;2023-05-03T18:11:32;101291.2;;;25.1;53.0
72124;BME280;63818;37.134;-8.548;2023-05-03T18:16:18;101323.8;;;25.1;54.5
72124;BME280;63818;37.134;-8.548;2023-05-03T18:26:05;101314.7;;;24.9;56.8
72124;BME280;63818;37.134;-8.548;2023-05-03T18:30:51;101337.9;;;24.8;56.9
72124;BME280;63818;37.134;-8.548;2023-05-03T18:35:39;101337.5;;;24.7;57.2
72124;BME280;63818;37.134;-8.548;2023-05-03T18:40:27;101344.1;;;24.6;57.5
72124;BME280;63818;37.134;-8.548;2023-05-03T18:45:14;101346.4;;;24.5;58.2
72124;BME280;63818;37.134;-8.548;2023-05-03T18:50:08;101348.7;;;24.5;58.4
72124;BME280;63818;37.134;-8.548;2023-05-03T18:55:00;101374.6;;;24.4;58.6
72124;BME280;63818;37.134;-8.548;2023-05-03T18:59:46;101371.9;;;24.4;58.9
72124;BME280;63818;37.134;-8.548;2023-05-03T19:04:32;101383.6;;;24.3;59.5
72124;BME280;63818;37.134;-8.548;2023-05-03T19:09:28;101385.1;;;24.2;59.7
72124;BME280;63818;37.134;-8.548;2023-05-03T19:14:16;101402.7;;;24.2;60.0
72124;BME280;63818;37.134;-8.548;2023-05-03T19:19:03;101401.5;;;24.1;59.9
72124;BME280;63818;37.134;-8.548;2023-05-03T19:23:48;101411.7;;;24.1;60.2
72124;BME280;63818;37.134;-8.548;2023-05-03T19:28:35;101418.4;;;24.1;60.0
72124;BME280;63818;37.134;-8.548;2023-05-03T19:33:21;101420.0;;;24.2;60.4
72124;BME280;63818;37.134;-8.548;2023-05-03T19:38:07;101431.3;;;24.1;60.3
72124;BME280;63818;37.134;-8.548;2023-05-03T19:42:53;101437.6;;;24.1;60.5
72124;BME280;63818;37.134;-8.548;2023-05-03T19:47:39;101445.4;;;24.0;60.8
72124;BME280;63818;37.134;-8.548;2023-05-03T19:52:25;101459.0;;;23.9;61.4
72124;BME280;63818;37.134;-8.548;2023-05-03T19:57:11;101463.3;;;23.9;61.3
72124;BME280;63818;37.134;-8.548;2023-05-03T20:01:58;101468.5;;;23.9;61.6
72124;BME280;63818;37.134;-8.548;2023-05-03T20:06:44;101470.4;;;23.9;61.9
72124;BME280;63818;37.134;-8.548;2023-05-03T20:11:30;101478.6;;;23.8;62.0
72124;BME280;63818;37.134;-8.548;2023-05-03T20:16:16;101482.1;;;23.8;62.5
72124;BME280;63818;37.134;-8.548;2023-05-03T20:21:02;101491.5;;;23.9;62.5
72124;BME280;63818;37.134;-8.548;2023-05-03T20:25:48;101490.3;;;23.8;63.0
72124;BME280;63818;37.134;-8.548;2023-05-03T20:30:34;101511.8;;;23.8;63.0
72124;BME280;63818;37.134;-8.548;2023-05-03T20:35:20;101518.8;;;23.7;63.4
72124;BME280;63818;37.134;-8.548;2023-05-03T20:40:07;101532.1;;;23.7;63.4
72124;BME280;63818;37.134;-8.548;2023-05-03T20:44:54;101546.2;;;23.6;63.5
72124;BME280;63818;37.134;-8.548;2023-05-03T20:49:40;101555.5;;;23.6;63.8
72124;BME280;63818;37.134;-8.548;2023-05-03T20:54:28;101564.4;;;23.5;64.3
72124;BME280;63818;37.134;-8.548;2023-05-03T20:59:14;101568.4;;;23.5;64.4
72124;BME280;63818;37.134;-8.548;2023-05-03T21:04:00;101575.1;;;23.5;64.5
72124;BME280;63818;37.134;-8.548;2023-05-03T21:08:47;101595.4;;;23.5;64.4
72124;BME280;63818;37.134;-8.548;2023-05-03T21:13:33;101593.0;;;23.5;64.9
72124;BME280;63818;37.134;-8.548;2023-05-03T21:18:19;101600.4;;;23.5;64.9
72124;BME280;63818;37.134;-8.548;2023-05-03T21:23:06;101622.7;;;23.4;65.1
72124;BME280;63818;37.134;-8.548;2023-05-03T21:27:52;101621.1;;;23.4;65.3
72124;BME280;63818;37.134;-8.548;2023-05-03T21:32:38;101620.7;;;23.3;65.7
72124;BME280;63818;37.134;-8.548;2023-05-03T21:37:24;101629.7;;;23.3;65.5
72124;BME280;63818;37.134;-8.548;2023-05-03T21:42:10;101644.1;;;23.3;66.1
72124;BME280;63818;37.134;-8.548;2023-05-03T21:46:56;101649.5;;;23.2;66.2
72124;BME280;63818;37.134;-8.548;2023-05-03T21:51:42;101653.1;;;23.3;66.4
72124;BME280;63818;37.134;-8.548;2023-05-03T21:56:29;101656.2;;;23.3;66.0
72124;BME280;63818;37.134;-8.548;2023-05-03T22:01:15;101654.7;;;23.3;66.2
72124;BME280;63818;37.134;-8.548;2023-05-03T22:06:01;101655.7;;;23.2;66.5
72124;BME280;63818;37.134;-8.548;2023-05-03T22:10:47;98056.5;;;-1.0;64.9
72124;BME280;63818;37.134;-8.548;2023-05-03T22:15:33;101659.3;;;23.2;66.3
72124;BME280;63818;37.134;-8.548;2023-05-03T22:20:19;101660.3;;;23.1;66.4
72124;BME280;63818;37.134;-8.548;2023-05-03T22:25:05;101662.9;;;23.0;66.4
72124;BME280;63818;37.134;-8.548;2023-05-03T22:29:52;101671.3;;;22.9;66.7
72124;BME280;63818;37.134;-8.548;2023-05-03T22:34:38;101672.6;;;22.9;67.1
72124;BME280;63818;37.134;-8.548;2023-05-03T22:39:27;101670.7;;;23.0;66.9
72124;BME280;63818;37.134;-8.548;2023-05-03T22:44:12;101668.1;;;23.1;66.6
72124;BME280;63818;37.134;-8.548;2023-05-03T22:48:59;101672.6;;;23.0;66.3
72124;BME280;63818;37.134;-8.548;2023-05-03T22:53:44;101672.1;;;22.9;66.4
72124;BME280;63818;37.134;-8.548;2023-05-03T22:58:30;101672.0;;;22.8;66.8
72124;BME280;63818;37.134;-8.548;2023-05-03T23:03:17;101672.8;;;22.9;66.8
72124;BME280;63818;37.134;-8.548;2023-05-03T23:08:03;101675.7;;;23.0;66.7
72124;BME280;63818;37.134;-8.548;2023-05-03T23:12:49;101669.1;;;23.0;66.9
72124;BME280;63818;37.134;-8.548;2023-05-03T23:17:35;101665.4;;;22.9;66.7
72124;BME280;63818;37.134;-8.548;2023-05-03T23:22:21;101665.8;;;22.9;66.7
72124;BME280;63818;37.134;-8.548;2023-05-03T23:27:07;101672.3;;;22.8;66.5
72124;BME280;63818;37.134;-8.548;2023-05-03T23:31:53;101681.7;;;22.8;66.6
72124;BME280;63818;37.134;-8.548;2023-05-03T23:36:40;101683.3;;;22.8;66.8
72124;BME280;63818;37.134;-8.548;2023-05-03T23:41:27;101682.9;;;22.8;66.7
72124;BME280;63818;37.134;-8.548;2023-05-03T23:46:13;101681.7;;;22.8;66.9
72124;BME280;63818;37.134;-8.548;2023-05-03T23:51:00;101682.0;;;22.8;66.8
72124;BME280;63818;37.134;-8.548;2023-05-03T23:55:46;101690.5;;;22.7;67.0
